sensor_id;sensor_type;location;lat;lon;timestamp;temperature;humidity
7034;DHT22;3558;53.176;10.412;2024-01-30T03:47:36;8.30;79.00
7034;DHT22;3558;53.176;10.412;2024-01-30T03:50:02;8.30;79.00
7034;DHT22;3558;53.176;10.412;2024-01-30T03:52:27;8.30;79.00
7034;DHT22;3558;53.176;10.412;2024-01-30T03:54:53;8.30;79.10
7034;DHT22;3558;53.176;10.412;2024-01-30T03:57:18;8.30;79.10
7034;DHT22;3558;53.176;10.412;2024-01-30T03:59:44;8.30;79.10
7034;DHT22;3558;53.176;10.412;2024-01-30T04:02:10;8.30;79.10
7034;DHT22;3558;53.176;10.412;2024-01-30T04:04:36;8.30;79.10
7034;DHT22;3558;53.176;10.412;2024-01-30T04:07:02;8.30;79.20
7034;DHT22;3558;53.176;10.412;2024-01-30T04:09:28;8.30;79.30
7034;DHT22;3558;53.176;10.412;2024-01-30T04:11:54;8.30;79.20
7034;DHT22;3558;53.176;10.412;2024-01-30T04:14:19;8.30;79.30
7034;DHT22;3558;53.176;10.412;2024-01-30T04:16:45;8.30;79.30
7034;DHT22;3558;53.176;10.412;2024-01-30T04:19:10;8.30;79.30
7034;DHT22;3558;53.176;10.412;2024-01-30T04:21:36;8.30;79.40
7034;DHT22;3558;53.176;10.412;2024-01-30T04:24:01;8.30;79.40
7034;DHT22;3558;53.176;10.412;2024-01-30T04:26:26;8.30;79.40
7034;DHT22;3558;53.176;10.412;2024-01-30T04:28:52;8.30;79.40
7034;DHT22;3558;53.176;10.412;2024-01-30T04:31:17;8.30;79.40
7034;DHT22;3558;53.176;10.412;2024-01-30T04:33:43;8.30;79.40
7034;DHT22;3558;53.176;10.412;2024-01-30T04:36:09;8.30;79.40
7034;DHT22;3558;53.176;10.412;2024-01-30T04:38:40;8.30;79.40
7034;DHT22;3558;53.176;10.412;2024-01-30T04:41:06;8.30;79.40
7034;DHT22;3558;53.176;10.412;2024-01-30T04:43:32;8.30;79.40
7034;DHT22;3558;53.176;10.412;2024-01-30T04:45:58;8.30;79.40
7034;DHT22;3558;53.176;10.412;2024-01-30T04:48:23;8.30;79.40
7034;DHT22;3558;53.176;10.412;2024-01-30T04:50:49;8.30;79.40
7034;DHT22;3558;53.176;10.412;2024-01-30T04:53:14;8.30;79.50
7034;DHT22;3558;53.176;10.412;2024-01-30T04:55:40;8.30;79.40
7034;DHT22;3558;53.176;10.412;2024-01-30T04:58:06;8.30;79.40
7034;DHT22;3558;53.176;10.412;2024-01-30T05:00:31;8.20;79.40
7034;DHT22;3558;53.176;10.412;2024-01-30T05:02:57;8.30;79.40
7034;DHT22;3558;53.176;10.412;2024-01-30T05:05:22;8.20;79.40
7034;DHT22;3558;53.176;10.412;2024-01-30T05:07:48;8.20;79.50
7034;DHT22;3558;53.176;10.412;2024-01-30T05:10:13;8.20;79.40
7034;DHT22;3558;53.176;10.412;2024-01-30T05:12:39;8.20;79.40
7034;DHT22;3558;53.176;10.412;2024-01-30T05:15:05;8.20;79.40
7034;DHT22;3558;53.176;10.412;2024-01-30T05:17:31;8.20;79.50
7034;DHT22;3558;53.176;10.412;2024-01-30T05:19:57;8.20;79.40
7034;DHT22;3558;53.176;10.412;2024-01-30T05:22:23;8.20;79.50
7034;DHT22;3558;53.176;10.412;2024-01-30T05:24:48;8.20;79.50
7034;DHT22;3558;53.176;10.412;2024-01-30T05:27:14;8.20;79.50
7034;DHT22;3558;53.176;10.412;2024-01-30T05:29:40;8.30;79.50
7034;DHT22;3558;53.176;10.412;2024-01-30T05:32:06;8.20;79.50
7034;DHT22;3558;53.176;10.412;2024-01-30T05:34:32;8.20;79.40
7034;DHT22;3558;53.176;10.412;2024-01-30T05:36:57;8.20;79.40
7034;DHT22;3558;53.176;10.412;2024-01-30T05:39:23;8.20;79.30
7034;DHT22;3558;53.176;10.412;2024-01-30T05:41:48;8.20;79.40
7034;DHT22;3558;53.176;10.412;2024-01-30T05:44:14;8.20;79.30
7034;DHT22;3558;53.176;10.412;2024-01-30T05:46:39;8.20;79.20
7034;DHT22;3558;53.176;10.412;2024-01-30T05:49:05;8.20;79.20
7034;DHT22;3558;53.176;10.412;2024-01-30T05:51:30;8.20;79.10
7034;DHT22;3558;53.176;10.412;2024-01-30T05:53:55;8.20;79.10
7034;DHT22;3558;53.176;10.412;2024-01-30T05:56:21;8.20;79.10
7034;DHT22;3558;53.176;10.412;2024-01-30T05:58:46;8.10;79.00
7034;DHT22;3558;53.176;10.412;2024-01-30T06:01:12;8.10;79.00
7034;DHT22;3558;53.176;10.412;2024-01-30T06:03:37;8.10;79.00
7034;DHT22;3558;53.176;10.412;2024-01-30T06:06:04;8.10;79.00
7034;DHT22;3558;53.176;10.412;2024-01-30T06:08:29;8.10;79.00
7034;DHT22;3558;53.176;10.412;2024-01-30T06:10:55;8.10;79.10
7034;DHT22;3558;53.176;10.412;2024-01-30T06:13:20;8.10;79.00
7034;DHT22;3558;53.176;10.412;2024-01-30T06:15:46;8.10;79.20
7034;DHT22;3558;53.176;10.412;2024-01-30T06:18:11;8.10;79.00
7034;DHT22;3558;53.176;10.412;2024-01-30T06:20:37;8.10;79.00
7034;DHT22;3558;53.176;10.412;2024-01-30T06:23:02;8.10;79.10
7034;DHT22;3558;53.176;10.412;2024-01-30T06:25:28;8.10;79.00
7034;DHT22;3558;53.176;10.412;2024-01-30T06:27:54;8.10;79.00
7034;DHT22;3558;53.176;10.412;2024-01-30T06:30:19;8.00;79.00
7034;DHT22;3558;53.176;10.412;2024-01-30T06:32:45;8.00;79.00
7034;DHT22;3558;53.176;10.412;2024-01-30T06:35:10;8.00;78.90
7034;DHT22;3558;53.176;10.412;2024-01-30T06:37:36;8.00;79.00
7034;DHT22;3558;53.176;10.412;2024-01-30T06:40:02;8.00;79.00
7034;DHT22;3558;53.176;10.412;2024-01-30T06:42:30;8.00;78.90
7034;DHT22;3558;53.176;10.412;2024-01-30T06:44:56;8.00;78.90
7034;DHT22;3558;53.176;10.412;2024-01-30T06:47:21;8.00;78.90
7034;DHT22;3558;53.176;10.412;2024-01-30T06:49:47;8.00;78.90
7034;DHT22;3558;53.176;10.412;2024-01-30T06:52:12;8.00;78.90
7034;DHT22;3558;53.176;10.412;2024-01-30T06:54:38;8.00;78.90
7034;DHT22;3558;53.176;10.412;2024-01-30T06:57:03;8.00;79.00
7034;DHT22;3558;53.176;10.412;2024-01-30T06:59:29;8.00;79.00
7034;DHT22;3558;53.176;10.412;2024-01-30T07:01:54;8.00;79.10
7034;DHT22;3558;53.176;10.412;2024-01-30T07:04:20;8.00;79.10
7034;DHT22;3558;53.176;10.412;2024-01-30T07:06:45;8.00;79.10
7034;DHT22;3558;53.176;10.412;2024-01-30T07:09:12;8.00;79.20
7034;DHT22;3558;53.176;10.412;2024-01-30T07:11:38;8.00;79.20
7034;DHT22;3558;53.176;10.412;2024-01-30T07:14:04;8.00;79.20
7034;DHT22;3558;53.176;10.412;2024-01-30T07:16:30;8.00;79.20
7034;DHT22;3558;53.176;10.412;2024-01-30T07:18:55;8.00;79.30
7034;DHT22;3558;53.176;10.412;2024-01-30T07:21:22;8.00;79.30
7034;DHT22;3558;53.176;10.412;2024-01-30T07:23:53;7.90;79.20
7034;DHT22;3558;53.176;10.412;2024-01-30T07:26:18;8.00;79.30
7034;DHT22;3558;53.176;10.412;2024-01-30T07:28:44;8.00;79.30
7034;DHT22;3558;53.176;10.412;2024-01-30T07:31:09;8.00;79.40
7034;DHT22;3558;53.176;10.412;2024-01-30T07:33:35;8.00;79.30
7034;DHT22;3558;53.176;10.412;2024-01-30T07:36:01;8.00;79.40
7034;DHT22;3558;53.176;10.412;2024-01-30T07:38:26;8.00;79.40
7034;DHT22;3558;53.176;10.412;2024-01-30T07:40:52;8.00;79.40
7034;DHT22;3558;53.176;10.412;2024-01-30T07:43:17;8.00;79.40
7034;DHT22;3558;53.176;10.412;2024-01-30T07:45:43;8.00;79.40
7034;DHT22;3558;53.176;10.412;2024-01-30T07:48:08;8.00;79.50
7034;DHT22;3558;53.176;10.412;2024-01-30T07:50:34;8.00;79.50
7034;DHT22;3558;53.176;10.412;2024-01-30T07:53:00;8.00;79.60
7034;DHT22;3558;53.176;10.412;2024-01-30T07:55:26;8.00;79.60
7034;DHT22;3558;53.176;10.412;2024-01-30T07:57:56;8.00;79.60
7034;DHT22;3558;53.176;10.412;2024-01-30T08:00:22;8.00;79.70
7034;DHT22;3558;53.176;10.412;2024-01-30T08:02:47;8.00;79.70
7034;DHT22;3558;53.176;10.412;2024-01-30T08:05:13;8.00;79.70
7034;DHT22;3558;53.176;10.412;2024-01-30T08:07:41;8.00;79.70
7034;DHT22;3558;53.176;10.412;2024-01-30T08:10:07;8.00;79.80
7034;DHT22;3558;53.176;10.412;2024-01-30T08:12:32;8.10;79.90
7034;DHT22;3558;53.176;10.412;2024-01-30T08:14:58;8.10;80.00
7034;DHT22;3558;53.176;10.412;2024-01-30T08:17:23;8.10;80.00
7034;DHT22;3558;53.176;10.412;2024-01-30T08:19:49;8.10;80.10
7034;DHT22;3558;53.176;10.412;2024-01-30T08:22:14;8.10;80.20
7034;DHT22;3558;53.176;10.412;2024-01-30T08:24:41;8.10;80.30
7034;DHT22;3558;53.176;10.412;2024-01-30T08:27:07;8.20;80.40
7034;DHT22;3558;53.176;10.412;2024-01-30T08:29:35;8.20;80.50
7034;DHT22;3558;53.176;10.412;2024-01-30T08:32:00;8.10;80.50
7034;DHT22;3558;53.176;10.412;2024-01-30T08:34:26;8.20;80.50
7034;DHT22;3558;53.176;10.412;2024-01-30T08:36:52;8.20;80.60
7034;DHT22;3558;53.176;10.412;2024-01-30T08:39:18;8.20;80.70
7034;DHT22;3558;53.176;10.412;2024-01-30T08:41:43;8.20;80.80
7034;DHT22;3558;53.176;10.412;2024-01-30T08:44:09;8.20;80.90
7034;DHT22;3558;53.176;10.412;2024-01-30T08:46:36;8.30;80.90
7034;DHT22;3558;53.176;10.412;2024-01-30T08:49:02;8.30;81.00
7034;DHT22;3558;53.176;10.412;2024-01-30T08:51:28;8.30;81.00
7034;DHT22;3558;53.176;10.412;2024-01-30T08:53:53;8.30;81.10
7034;DHT22;3558;53.176;10.412;2024-01-30T08:56:19;8.30;81.20
7034;DHT22;3558;53.176;10.412;2024-01-30T08:58:44;8.40;81.30
7034;DHT22;3558;53.176;10.412;2024-01-30T09:01:10;8.40;81.40
7034;DHT22;3558;53.176;10.412;2024-01-30T09:03:35;8.40;81.40
7034;DHT22;3558;53.176;10.412;2024-01-30T09:06:10;8.50;81.60
7034;DHT22;3558;53.176;10.412;2024-01-30T09:08:35;8.50;81.70
7034;DHT22;3558;53.176;10.412;2024-01-30T09:11:08;8.50;81.70
7034;DHT22;3558;53.176;10.412;2024-01-30T09:13:34;8.50;81.80
7034;DHT22;3558;53.176;10.412;2024-01-30T09:15:59;8.50;82.00
7034;DHT22;3558;53.176;10.412;2024-01-30T09:18:24;8.50;82.10
7034;DHT22;3558;53.176;10.412;2024-01-30T09:20:50;8.60;82.30
7034;DHT22;3558;53.176;10.412;2024-01-30T09:23:16;8.60;82.30
7034;DHT22;3558;53.176;10.412;2024-01-30T09:25:42;8.60;82.40
7034;DHT22;3558;53.176;10.412;2024-01-30T09:28:08;8.60;82.40
7034;DHT22;3558;53.176;10.412;2024-01-30T09:30:34;8.70;82.60
7034;DHT22;3558;53.176;10.412;2024-01-30T09:32:59;8.70;82.60
7034;DHT22;3558;53.176;10.412;2024-01-30T09:35:25;8.70;82.50
7034;DHT22;3558;53.176;10.412;2024-01-30T09:37:50;8.80;82.50
7034;DHT22;3558;53.176;10.412;2024-01-30T09:40:17;8.80;82.50
7034;DHT22;3558;53.176;10.412;2024-01-30T09:42:46;8.90;82.60
7034;DHT22;3558;53.176;10.412;2024-01-30T09:45:14;8.90;82.70
7034;DHT22;3558;53.176;10.412;2024-01-30T09:47:43;8.90;82.60
7034;DHT22;3558;53.176;10.412;2024-01-30T09:50:10;9.00;82.70
7034;DHT22;3558;53.176;10.412;2024-01-30T09:52:36;9.00;82.70
7034;DHT22;3558;53.176;10.412;2024-01-30T09:55:02;9.10;82.70
7034;DHT22;3558;53.176;10.412;2024-01-30T09:57:28;9.10;82.60
7034;DHT22;3558;53.176;10.412;2024-01-30T09:59:54;9.20;82.50
7034;DHT22;3558;53.176;10.412;2024-01-30T10:02:20;9.20;82.50
7034;DHT22;3558;53.176;10.412;2024-01-30T10:04:48;9.30;82.70
7034;DHT22;3558;53.176;10.412;2024-01-30T10:07:14;9.30;82.80
7034;DHT22;3558;53.176;10.412;2024-01-30T10:09:40;9.40;82.90
7034;DHT22;3558;53.176;10.412;2024-01-30T10:12:06;9.40;82.90
7034;DHT22;3558;53.176;10.412;2024-01-30T10:14:31;9.50;82.80
7034;DHT22;3558;53.176;10.412;2024-01-30T10:16:58;9.50;82.90
7034;DHT22;3558;53.176;10.412;2024-01-30T10:19:23;9.60;83.20
7034;DHT22;3558;53.176;10.412;2024-01-30T10:21:49;9.60;83.30
7034;DHT22;3558;53.176;10.412;2024-01-30T10:24:14;9.70;83.30
7034;DHT22;3558;53.176;10.412;2024-01-30T10:26:40;9.70;83.30
7034;DHT22;3558;53.176;10.412;2024-01-30T10:29:05;9.70;83.30
7034;DHT22;3558;53.176;10.412;2024-01-30T10:31:31;9.80;83.40
7034;DHT22;3558;53.176;10.412;2024-01-30T10:33:56;9.90;83.40
7034;DHT22;3558;53.176;10.412;2024-01-30T10:36:28;9.90;83.60
7034;DHT22;3558;53.176;10.412;2024-01-30T10:38:56;10.00;83.50
7034;DHT22;3558;53.176;10.412;2024-01-30T10:41:26;10.00;83.10
7034;DHT22;3558;53.176;10.412;2024-01-30T10:44:04;10.10;82.90
7034;DHT22;3558;53.176;10.412;2024-01-30T10:46:33;10.20;82.70
7034;DHT22;3558;53.176;10.412;2024-01-30T10:49:00;10.30;82.60
7034;DHT22;3558;53.176;10.412;2024-01-30T10:51:27;10.30;82.40
7034;DHT22;3558;53.176;10.412;2024-01-30T10:53:53;10.30;82.30
7034;DHT22;3558;53.176;10.412;2024-01-30T10:56:21;10.40;82.20
7034;DHT22;3558;53.176;10.412;2024-01-30T10:58:51;10.50;82.10
7034;DHT22;3558;53.176;10.412;2024-01-30T11:01:22;10.60;82.20
7034;DHT22;3558;53.176;10.412;2024-01-30T11:03:50;10.70;82.20
7034;DHT22;3558;53.176;10.412;2024-01-30T11:06:16;10.70;82.40
7034;DHT22;3558;53.176;10.412;2024-01-30T11:08:44;10.80;83.00
7034;DHT22;3558;53.176;10.412;2024-01-30T11:11:10;10.80;83.50
7034;DHT22;3558;53.176;10.412;2024-01-30T11:13:36;10.90;83.60
7034;DHT22;3558;53.176;10.412;2024-01-30T11:16:02;10.90;84.20
7034;DHT22;3558;53.176;10.412;2024-01-30T11:18:32;11.00;84.70
7034;DHT22;3558;53.176;10.412;2024-01-30T11:20:59;11.00;85.50
7034;DHT22;3558;53.176;10.412;2024-01-30T11:23:27;11.20;85.90
7034;DHT22;3558;53.176;10.412;2024-01-30T11:25:54;11.20;86.30
7034;DHT22;3558;53.176;10.412;2024-01-30T11:28:21;11.20;86.60
7034;DHT22;3558;53.176;10.412;2024-01-30T11:30:47;11.30;86.60
7034;DHT22;3558;53.176;10.412;2024-01-30T11:33:26;11.40;86.60
7034;DHT22;3558;53.176;10.412;2024-01-30T11:35:52;11.50;86.80
7034;DHT22;3558;53.176;10.412;2024-01-30T11:38:18;11.50;86.80
7034;DHT22;3558;53.176;10.412;2024-01-30T11:40:43;11.60;86.90
7034;DHT22;3558;53.176;10.412;2024-01-30T11:43:09;11.60;87.10
7034;DHT22;3558;53.176;10.412;2024-01-30T11:45:36;11.60;87.60
7034;DHT22;3558;53.176;10.412;2024-01-30T11:48:02;11.70;87.10
7034;DHT22;3558;53.176;10.412;2024-01-30T11:50:35;11.80;87.00
7034;DHT22;3558;53.176;10.412;2024-01-30T11:53:00;11.80;87.40
7034;DHT22;3558;53.176;10.412;2024-01-30T11:55:26;11.80;87.70
7034;DHT22;3558;53.176;10.412;2024-01-30T11:57:55;11.80;87.70
7034;DHT22;3558;53.176;10.412;2024-01-30T12:00:21;12.00;87.80
7034;DHT22;3558;53.176;10.412;2024-01-30T12:02:51;12.00;88.20
7034;DHT22;3558;53.176;10.412;2024-01-30T12:05:24;12.10;88.10
7034;DHT22;3558;53.176;10.412;2024-01-30T12:07:49;12.10;88.30
7034;DHT22;3558;53.176;10.412;2024-01-30T12:10:15;12.10;88.00
7034;DHT22;3558;53.176;10.412;2024-01-30T12:12:43;12.20;87.70
7034;DHT22;3558;53.176;10.412;2024-01-30T12:15:10;12.20;87.90
7034;DHT22;3558;53.176;10.412;2024-01-30T12:17:36;12.30;88.20
7034;DHT22;3558;53.176;10.412;2024-01-30T12:20:09;12.30;88.10
7034;DHT22;3558;53.176;10.412;2024-01-30T12:22:48;12.40;88.30
7034;DHT22;3558;53.176;10.412;2024-01-30T12:25:16;12.40;88.30
7034;DHT22;3558;53.176;10.412;2024-01-30T12:27:43;12.50;88.20
7034;DHT22;3558;53.176;10.412;2024-01-30T12:30:10;12.50;87.50
7034;DHT22;3558;53.176;10.412;2024-01-30T12:32:40;12.50;87.40
7034;DHT22;3558;53.176;10.412;2024-01-30T12:35:10;12.50;87.60
7034;DHT22;3558;53.176;10.412;2024-01-30T12:37:37;12.60;87.50
7034;DHT22;3558;53.176;10.412;2024-01-30T12:40:03;12.70;87.60
7034;DHT22;3558;53.176;10.412;2024-01-30T12:42:29;12.70;87.50
7034;DHT22;3558;53.176;10.412;2024-01-30T12:44:56;12.70;87.40
7034;DHT22;3558;53.176;10.412;2024-01-30T12:47:22;12.70;87.80
7034;DHT22;3558;53.176;10.412;2024-01-30T12:49:47;12.80;87.50
7034;DHT22;3558;53.176;10.412;2024-01-30T12:52:15;12.80;88.00
7034;DHT22;3558;53.176;10.412;2024-01-30T12:54:41;12.90;88.40
7034;DHT22;3558;53.176;10.412;2024-01-30T12:57:07;12.90;88.30
7034;DHT22;3558;53.176;10.412;2024-01-30T12:59:32;12.90;88.50
7034;DHT22;3558;53.176;10.412;2024-01-30T13:02:00;12.90;88.80
7034;DHT22;3558;53.176;10.412;2024-01-30T13:04:26;13.00;88.50
7034;DHT22;3558;53.176;10.412;2024-01-30T13:06:52;13.00;88.70
7034;DHT22;3558;53.176;10.412;2024-01-30T13:09:18;13.10;88.90
7034;DHT22;3558;53.176;10.412;2024-01-30T13:11:43;13.10;88.80
7034;DHT22;3558;53.176;10.412;2024-01-30T13:14:09;13.10;88.70
7034;DHT22;3558;53.176;10.412;2024-01-30T13:16:34;13.10;88.60
7034;DHT22;3558;53.176;10.412;2024-01-30T13:19:00;13.20;89.10
7034;DHT22;3558;53.176;10.412;2024-01-30T13:21:27;13.20;89.40
7034;DHT22;3558;53.176;10.412;2024-01-30T13:23:52;13.20;89.50
7034;DHT22;3558;53.176;10.412;2024-01-30T13:26:20;13.30;89.50
7034;DHT22;3558;53.176;10.412;2024-01-30T13:28:46;13.20;89.70
7034;DHT22;3558;53.176;10.412;2024-01-30T13:31:12;13.30;89.40
7034;DHT22;3558;53.176;10.412;2024-01-30T13:33:37;13.30;89.40
7034;DHT22;3558;53.176;10.412;2024-01-30T13:36:03;13.30;89.40
7034;DHT22;3558;53.176;10.412;2024-01-30T13:38:29;13.30;89.40
7034;DHT22;3558;53.176;10.412;2024-01-30T13:40:54;13.40;89.40
7034;DHT22;3558;53.176;10.412;2024-01-30T13:43:20;13.40;89.30
7034;DHT22;3558;53.176;10.412;2024-01-30T13:45:45;13.50;88.50
7034;DHT22;3558;53.176;10.412;2024-01-30T13:48:11;13.50;87.70
7034;DHT22;3558;53.176;10.412;2024-01-30T13:50:37;13.50;87.80
7034;DHT22;3558;53.176;10.412;2024-01-30T13:53:03;13.50;88.10
7034;DHT22;3558;53.176;10.412;2024-01-30T13:55:29;13.50;88.40
7034;DHT22;3558;53.176;10.412;2024-01-30T13:57:55;13.50;88.40
7034;DHT22;3558;53.176;10.412;2024-01-30T14:00:21;13.50;88.50
7034;DHT22;3558;53.176;10.412;2024-01-30T14:02:48;13.50;88.70
7034;DHT22;3558;53.176;10.412;2024-01-30T14:05:13;13.60;88.70
7034;DHT22;3558;53.176;10.412;2024-01-30T14:07:40;13.60;88.00
7034;DHT22;3558;53.176;10.412;2024-01-30T14:10:06;13.60;88.50
7034;DHT22;3558;53.176;10.412;2024-01-30T14:12:32;13.70;88.70
7034;DHT22;3558;53.176;10.412;2024-01-30T14:14:57;13.70;89.00
7034;DHT22;3558;53.176;10.412;2024-01-30T14:17:23;13.60;89.10
7034;DHT22;3558;53.176;10.412;2024-01-30T14:19:48;13.70;89.40
7034;DHT22;3558;53.176;10.412;2024-01-30T14:22:14;13.70;89.40
7034;DHT22;3558;53.176;10.412;2024-01-30T14:24:39;13.70;89.40
7034;DHT22;3558;53.176;10.412;2024-01-30T14:27:05;13.70;89.40
7034;DHT22;3558;53.176;10.412;2024-01-30T14:29:30;13.70;89.50
7034;DHT22;3558;53.176;10.412;2024-01-30T14:31:56;13.70;89.50
7034;DHT22;3558;53.176;10.412;2024-01-30T14:34:22;13.70;89.60
7034;DHT22;3558;53.176;10.412;2024-01-30T14:36:47;13.70;89.60
7034;DHT22;3558;53.176;10.412;2024-01-30T14:39:13;13.80;89.70
7034;DHT22;3558;53.176;10.412;2024-01-30T14:41:39;13.80;89.70
7034;DHT22;3558;53.176;10.412;2024-01-30T14:44:04;13.80;89.60
7034;DHT22;3558;53.176;10.412;2024-01-30T14:46:30;13.80;89.80
7034;DHT22;3558;53.176;10.412;2024-01-30T14:48:56;13.80;89.50
7034;DHT22;3558;53.176;10.412;2024-01-30T14:51:23;13.80;89.30
7034;DHT22;3558;53.176;10.412;2024-01-30T14:53:48;13.80;89.10
7034;DHT22;3558;53.176;10.412;2024-01-30T14:56:14;13.90;89.10
7034;DHT22;3558;53.176;10.412;2024-01-30T14:58:40;13.90;88.90
7034;DHT22;3558;53.176;10.412;2024-01-30T15:01:06;13.90;88.80
7034;DHT22;3558;53.176;10.412;2024-01-30T15:03:32;13.90;88.70
7034;DHT22;3558;53.176;10.412;2024-01-30T15:05:57;13.90;88.50
7034;DHT22;3558;53.176;10.412;2024-01-30T15:08:23;13.90;88.50
7034;DHT22;3558;53.176;10.412;2024-01-30T15:10:48;13.90;88.10
7034;DHT22;3558;53.176;10.412;2024-01-30T15:13:16;13.90;88.10
7034;DHT22;3558;53.176;10.412;2024-01-30T15:15:41;13.90;88.00
7034;DHT22;3558;53.176;10.412;2024-01-30T15:18:08;13.90;87.80
7034;DHT22;3558;53.176;10.412;2024-01-30T15:20:36;13.90;87.60
7034;DHT22;3558;53.176;10.412;2024-01-30T15:23:01;14.00;87.60
7034;DHT22;3558;53.176;10.412;2024-01-30T15:25:27;13.90;87.30
7034;DHT22;3558;53.176;10.412;2024-01-30T15:27:54;14.00;87.30
7034;DHT22;3558;53.176;10.412;2024-01-30T15:30:20;14.00;87.20
7034;DHT22;3558;53.176;10.412;2024-01-30T15:32:45;14.00;87.00
7034;DHT22;3558;53.176;10.412;2024-01-30T15:35:11;14.00;86.80
7034;DHT22;3558;53.176;10.412;2024-01-30T15:37:37;14.00;86.60
7034;DHT22;3558;53.176;10.412;2024-01-30T15:40:03;14.00;86.70
7034;DHT22;3558;53.176;10.412;2024-01-30T15:42:32;14.00;86.60
7034;DHT22;3558;53.176;10.412;2024-01-30T15:44:57;14.00;86.60
7034;DHT22;3558;53.176;10.412;2024-01-30T15:47:24;14.00;86.60
7034;DHT22;3558;53.176;10.412;2024-01-30T15:49:50;14.00;86.60
7034;DHT22;3558;53.176;10.412;2024-01-30T15:52:15;14.00;86.60
7034;DHT22;3558;53.176;10.412;2024-01-30T15:54:43;14.00;86.60
7034;DHT22;3558;53.176;10.412;2024-01-30T15:57:09;14.00;86.60
7034;DHT22;3558;53.176;10.412;2024-01-30T15:59:34;13.90;87.10
7034;DHT22;3558;53.176;10.412;2024-01-30T16:02:00;14.10;86.60
7034;DHT22;3558;53.176;10.412;2024-01-30T16:04:25;14.00;86.60
7034;DHT22;3558;53.176;10.412;2024-01-30T16:06:50;14.10;86.60
7034;DHT22;3558;53.176;10.412;2024-01-30T16:09:16;14.00;86.70
7034;DHT22;3558;53.176;10.412;2024-01-30T16:11:42;14.10;86.70
7034;DHT22;3558;53.176;10.412;2024-01-30T16:14:07;14.10;86.70
7034;DHT22;3558;53.176;10.412;2024-01-30T16:16:34;14.10;86.70
7034;DHT22;3558;53.176;10.412;2024-01-30T16:19:00;14.10;86.70
7034;DHT22;3558;53.176;10.412;2024-01-30T16:21:25;14.10;86.70
7034;DHT22;3558;53.176;10.412;2024-01-30T16:23:51;14.10;86.80
7034;DHT22;3558;53.176;10.412;2024-01-30T16:26:19;14.10;86.80
7034;DHT22;3558;53.176;10.412;2024-01-30T16:28:45;14.10;86.80
7034;DHT22;3558;53.176;10.412;2024-01-30T16:31:10;14.10;86.80
7034;DHT22;3558;53.176;10.412;2024-01-30T16:33:36;14.10;86.90
7034;DHT22;3558;53.176;10.412;2024-01-30T16:36:01;14.10;86.90
7034;DHT22;3558;53.176;10.412;2024-01-30T16:38:27;14.10;87.00
7034;DHT22;3558;53.176;10.412;2024-01-30T16:40:52;14.10;87.00
7034;DHT22;3558;53.176;10.412;2024-01-30T16:43:18;14.10;87.00
7034;DHT22;3558;53.176;10.412;2024-01-30T16:45:43;14.10;87.20
7034;DHT22;3558;53.176;10.412;2024-01-30T16:48:09;14.10;87.20
7034;DHT22;3558;53.176;10.412;2024-01-30T16:50:40;14.10;87.30
7034;DHT22;3558;53.176;10.412;2024-01-30T16:53:05;14.10;87.40
7034;DHT22;3558;53.176;10.412;2024-01-30T16:55:31;14.10;87.40
7034;DHT22;3558;53.176;10.412;2024-01-30T16:57:56;14.10;87.40
7034;DHT22;3558;53.176;10.412;2024-01-30T17:00:22;14.10;87.50
7034;DHT22;3558;53.176;10.412;2024-01-30T17:02:47;14.10;87.50
7034;DHT22;3558;53.176;10.412;2024-01-30T17:05:13;14.00;87.60
7034;DHT22;3558;53.176;10.412;2024-01-30T17:07:38;14.10;87.70
7034;DHT22;3558;53.176;10.412;2024-01-30T17:10:04;14.00;87.70
7034;DHT22;3558;53.176;10.412;2024-01-30T17:12:30;14.00;87.80
7034;DHT22;3558;53.176;10.412;2024-01-30T17:14:56;14.10;87.90
7034;DHT22;3558;53.176;10.412;2024-01-30T17:17:22;14.00;87.80
7034;DHT22;3558;53.176;10.412;2024-01-30T17:19:47;14.00;87.90
7034;DHT22;3558;53.176;10.412;2024-01-30T17:22:13;14.10;88.00
7034;DHT22;3558;53.176;10.412;2024-01-30T17:24:38;14.00;88.00
7034;DHT22;3558;53.176;10.412;2024-01-30T17:27:04;14.10;88.00
7034;DHT22;3558;53.176;10.412;2024-01-30T17:29:29;14.00;88.00
7034;DHT22;3558;53.176;10.412;2024-01-30T17:31:55;14.10;88.00
7034;DHT22;3558;53.176;10.412;2024-01-30T17:34:20;14.00;88.00
7034;DHT22;3558;53.176;10.412;2024-01-30T17:36:49;14.10;88.10
7034;DHT22;3558;53.176;10.412;2024-01-30T17:39:15;14.10;88.20
7034;DHT22;3558;53.176;10.412;2024-01-30T17:41:40;14.00;88.20
7034;DHT22;3558;53.176;10.412;2024-01-30T17:44:06;14.10;88.20
7034;DHT22;3558;53.176;10.412;2024-01-30T17:46:31;14.00;88.30
7034;DHT22;3558;53.176;10.412;2024-01-30T17:48:57;14.10;88.20
7034;DHT22;3558;53.176;10.412;2024-01-30T17:51:22;14.10;88.30
7034;DHT22;3558;53.176;10.412;2024-01-30T17:53:48;14.10;88.30
7034;DHT22;3558;53.176;10.412;2024-01-30T17:56:13;14.10;88.30
7034;DHT22;3558;53.176;10.412;2024-01-30T17:58:40;14.10;88.40
7034;DHT22;3558;53.176;10.412;2024-01-30T18:01:07;14.10;88.40
7034;DHT22;3558;53.176;10.412;2024-01-30T18:03:32;14.00;88.40
7034;DHT22;3558;53.176;10.412;2024-01-30T18:05:58;14.10;88.40
7034;DHT22;3558;53.176;10.412;2024-01-30T18:08:25;14.10;88.40
7034;DHT22;3558;53.176;10.412;2024-01-30T18:10:50;14.10;88.50
7034;DHT22;3558;53.176;10.412;2024-01-30T18:13:16;14.10;88.40
7034;DHT22;3558;53.176;10.412;2024-01-30T18:15:45;14.10;88.40
7034;DHT22;3558;53.176;10.412;2024-01-30T18:18:10;14.10;88.50
7034;DHT22;3558;53.176;10.412;2024-01-30T18:20:38;14.10;88.40
7034;DHT22;3558;53.176;10.412;2024-01-30T18:23:05;14.10;88.40
7034;DHT22;3558;53.176;10.412;2024-01-30T18:25:31;14.10;88.40
7034;DHT22;3558;53.176;10.412;2024-01-30T18:27:56;14.10;88.90
7034;DHT22;3558;53.176;10.412;2024-01-30T18:30:21;14.10;88.40
7034;DHT22;3558;53.176;10.412;2024-01-30T18:32:47;14.10;88.30
7034;DHT22;3558;53.176;10.412;2024-01-30T18:35:14;14.10;88.30
7034;DHT22;3558;53.176;10.412;2024-01-30T18:37:39;14.10;88.30
7034;DHT22;3558;53.176;10.412;2024-01-30T18:40:06;14.10;88.40
7034;DHT22;3558;53.176;10.412;2024-01-30T18:42:31;14.10;88.40
7034;DHT22;3558;53.176;10.412;2024-01-30T18:44:57;14.10;88.40
7034;DHT22;3558;53.176;10.412;2024-01-30T18:47:23;14.10;88.40
7034;DHT22;3558;53.176;10.412;2024-01-30T18:49:49;14.10;88.40
7034;DHT22;3558;53.176;10.412;2024-01-30T18:52:16;14.10;88.40
7034;DHT22;3558;53.176;10.412;2024-01-30T18:54:42;14.10;88.40
7034;DHT22;3558;53.176;10.412;2024-01-30T18:57:07;14.10;88.40
7034;DHT22;3558;53.176;10.412;2024-01-30T18:59:33;14.10;88.40
7034;DHT22;3558;53.176;10.412;2024-01-30T19:01:59;14.10;88.30
7034;DHT22;3558;53.176;10.412;2024-01-30T19:04:24;14.10;88.40
7034;DHT22;3558;53.176;10.412;2024-01-30T19:06:49;14.20;88.50
7034;DHT22;3558;53.176;10.412;2024-01-30T19:09:17;14.20;88.40
7034;DHT22;3558;53.176;10.412;2024-01-30T19:11:43;14.10;88.40
7034;DHT22;3558;53.176;10.412;2024-01-30T19:14:09;14.10;88.40
7034;DHT22;3558;53.176;10.412;2024-01-30T19:16:35;14.10;88.40
7034;DHT22;3558;53.176;10.412;2024-01-30T19:19:01;14.20;88.50
7034;DHT22;3558;53.176;10.412;2024-01-30T19:21:34;14.20;88.50
7034;DHT22;3558;53.176;10.412;2024-01-30T19:24:01;14.20;88.50
7034;DHT22;3558;53.176;10.412;2024-01-30T19:26:27;14.20;88.50
7034;DHT22;3558;53.176;10.412;2024-01-30T19:28:52;14.30;88.60
7034;DHT22;3558;53.176;10.412;2024-01-30T19:31:18;14.20;88.50